ZWWW Airport Information

Runway Information
Runway 07 Length 11811 ft width 148 ft
Elevation 2123 ft Threshold 0 ft Heading 74
Runway 25 Length 11811 ft Width 148 ft
Elevation 2126 ft Threshold 0 ft Heading 254
Airport Frequencies
Type ATIS Name ATIS Frequency 126.7 MHZ
Type GND Name GND Frequency 121.65 MHZ
Type TWR Name TWR Frequency 118.1 MHZ
Airport Navaids
Type NDB Name Fukang Frequency 369 KHZ
Type VOR-DME Name Fukang Frequency 116300 KHZ
Type VOR-DME Name Urumqi Frequency 115700 KHZ
Airport Weather Information & NOTAM
ADDS - METARS form results

(0638 UTC 19 September 2020)
Data provider http://aviationweather.gov/metar/data/
 
METAR text: ZWWW 190630Z 35003MPS 290V030 CAVOK 18/02 Q1026 NOSIG
Conditions at: ZWWW (URUM-QI/DIWOPU , CN) observed 0630 UTC 19 September 2020
Temperature: 18.0°C (64°F)
Dewpoint: 2.0°C (36°F) [RH = 34%]
Pressure (altimeter): 30.30 inches Hg (1026.0 mb)
Winds: from the N (350 degrees) at 7 MPH (6 knots; 3.1 m/s)
Visibility: 6 or more miles (10+ km)
Ceiling: ceiling and visibility are OK
Clouds: unknown
Weather: no significant weather observed at this time

METAR text: ZWWW 190600Z 34003MPS 300V040 CAVOK 17/02 Q1027 NOSIG
Conditions at: ZWWW (URUM-QI/DIWOPU , CN) observed 0600 UTC 19 September 2020
Temperature: 17.0°C (63°F)
Dewpoint: 2.0°C (36°F) [RH = 36%]
Pressure (altimeter): 30.32 inches Hg (1027.0 mb)
Winds: from the NNW (340 degrees) at 7 MPH (6 knots; 3.1 m/s)
Visibility: 6 or more miles (10+ km)
Ceiling: ceiling and visibility are OK
Clouds: unknown
Weather: no significant weather observed at this time

Forecast for: ZWWW (URUM-QI/DIWOPU , CN)
Text: TAF ZWWW 190304Z 1906/2006 36004MPS CAVOK TX19/1909Z TN12/1923Z
Forecast period: 0600 to 1300 UTC 19 September 2020
Forecast type: FROM: standard forecast or significant change
Winds: from the N (360 degrees) at 9 MPH (8 knots; 4.1 m/s)
Visibility: 6 or more miles (10+ km)
Ceiling: unknown
Clouds: missing
Weather: no significant weather forecast for this period
Text: BECMG 1913/1914 18004MPS
Forecast period: 1300 UTC 19 September 2020 to 0200 UTC 20 September 2020
Forecast type: BECOMING: Conditions expected to become as follows by 1400 UTC 19 September 2020
Winds: from the S (180 degrees) at 9 MPH (8 knots; 4.1 m/s)
Visibility: 6 or more miles (10+ km)
Ceiling: unknown
Clouds: missing
Weather: no significant weather forecast for this period
Text: BECMG 2002/2003 36004MPS
Forecast period: 0200 to 0600 UTC 20 September 2020
Forecast type: BECOMING: Conditions expected to become as follows by 0300 UTC 20 September 2020
Winds: from the N (360 degrees) at 9 MPH (8 knots; 4.1 m/s)
Visibility: 6 or more miles (10+ km)
Ceiling: unknown
Clouds: missing
Weather: no significant weather forecast for this period